sensor_id;sensor_type;location;lat;lon;timestamp;temperature;humidity
20345;DHT22;10330;48.816;9.278;2023-04-25T00:01:21;9.40;99.90
20345;DHT22;10330;48.816;9.278;2023-04-25T00:03:50;9.40;99.90
20345;DHT22;10330;48.816;9.278;2023-04-25T00:06:17;9.30;99.90
20345;DHT22;10330;48.816;9.278;2023-04-25T00:08:43;9.30;99.90
20345;DHT22;10330;48.816;9.278;2023-04-25T00:11:10;9.30;99.90
20345;DHT22;10330;48.816;9.278;2023-04-25T00:13:36;9.20;99.90
20345;DHT22;10330;48.816;9.278;2023-04-25T00:16:02;9.30;99.90
20345;DHT22;10330;48.816;9.278;2023-04-25T00:18:28;9.40;99.90
20345;DHT22;10330;48.816;9.278;2023-04-25T00:20:55;9.40;99.90
20345;DHT22;10330;48.816;9.278;2023-04-25T00:23:21;9.40;99.90
20345;DHT22;10330;48.816;9.278;2023-04-25T00:25:49;9.40;99.90
20345;DHT22;10330;48.816;9.278;2023-04-25T00:28:16;9.40;99.90
20345;DHT22;10330;48.816;9.278;2023-04-25T00:30:43;9.40;99.90
20345;DHT22;10330;48.816;9.278;2023-04-25T00:33:09;9.40;99.90
20345;DHT22;10330;48.816;9.278;2023-04-25T00:35:36;9.40;99.90
20345;DHT22;10330;48.816;9.278;2023-04-25T00:38:02;9.30;99.90
20345;DHT22;10330;48.816;9.278;2023-04-25T00:40:29;9.30;99.90
20345;DHT22;10330;48.816;9.278;2023-04-25T00:42:55;9.30;99.90
20345;DHT22;10330;48.816;9.278;2023-04-25T00:45:21;9.30;99.90
20345;DHT22;10330;48.816;9.278;2023-04-25T00:47:53;9.20;99.90
20345;DHT22;10330;48.816;9.278;2023-04-25T00:50:20;9.30;99.90
20345;DHT22;10330;48.816;9.278;2023-04-25T00:52:46;9.30;99.90
20345;DHT22;10330;48.816;9.278;2023-04-25T00:55:13;9.30;99.90
20345;DHT22;10330;48.816;9.278;2023-04-25T00:57:39;9.30;99.90
20345;DHT22;10330;48.816;9.278;2023-04-25T01:00:07;9.30;99.90
20345;DHT22;10330;48.816;9.278;2023-04-25T01:02:35;9.20;99.90
20345;DHT22;10330;48.816;9.278;2023-04-25T01:05:02;9.20;99.90
20345;DHT22;10330;48.816;9.278;2023-04-25T01:07:29;9.20;99.90
20345;DHT22;10330;48.816;9.278;2023-04-25T01:09:56;9.20;99.90
20345;DHT22;10330;48.816;9.278;2023-04-25T01:12:23;9.10;99.90
20345;DHT22;10330;48.816;9.278;2023-04-25T01:14:49;9.10;99.90
20345;DHT22;10330;48.816;9.278;2023-04-25T01:17:17;9.10;99.90
20345;DHT22;10330;48.816;9.278;2023-04-25T01:19:43;9.10;99.90
20345;DHT22;10330;48.816;9.278;2023-04-25T01:22:11;9.10;99.90
20345;DHT22;10330;48.816;9.278;2023-04-25T01:24:38;9.10;99.90
20345;DHT22;10330;48.816;9.278;2023-04-25T01:27:04;9.10;99.90
20345;DHT22;10330;48.816;9.278;2023-04-25T01:29:32;9.10;99.90
20345;DHT22;10330;48.816;9.278;2023-04-25T01:31:59;9.10;99.90
20345;DHT22;10330;48.816;9.278;2023-04-25T01:34:25;9.10;99.90
20345;DHT22;10330;48.816;9.278;2023-04-25T01:36:52;9.10;99.90
20345;DHT22;10330;48.816;9.278;2023-04-25T01:39:19;9.10;99.90
20345;DHT22;10330;48.816;9.278;2023-04-25T01:41:47;9.00;99.90
20345;DHT22;10330;48.816;9.278;2023-04-25T01:44:14;9.10;99.90
20345;DHT22;10330;48.816;9.278;2023-04-25T01:46:41;9.10;99.90
20345;DHT22;10330;48.816;9.278;2023-04-25T01:51:34;9.10;99.90
20345;DHT22;10330;48.816;9.278;2023-04-25T01:54:01;9.00;99.90
20345;DHT22;10330;48.816;9.278;2023-04-25T01:56:32;9.00;99.90
20345;DHT22;10330;48.816;9.278;2023-04-25T01:59:00;9.10;99.90
20345;DHT22;10330;48.816;9.278;2023-04-25T02:02:05;9.00;99.90
20345;DHT22;10330;48.816;9.278;2023-04-25T02:04:35;9.00;99.90
20345;DHT22;10330;48.816;9.278;2023-04-25T02:07:04;9.00;99.90
20345;DHT22;10330;48.816;9.278;2023-04-25T02:09:42;9.00;99.90
20345;DHT22;10330;48.816;9.278;2023-04-25T02:12:11;9.00;99.90
20345;DHT22;10330;48.816;9.278;2023-04-25T02:14:57;9.10;99.90
20345;DHT22;10330;48.816;9.278;2023-04-25T02:17:36;9.00;99.90
20345;DHT22;10330;48.816;9.278;2023-04-25T02:20:02;9.10;99.90
20345;DHT22;10330;48.816;9.278;2023-04-25T02:22:29;9.10;99.90
20345;DHT22;10330;48.816;9.278;2023-04-25T02:24:56;9.10;99.90
20345;DHT22;10330;48.816;9.278;2023-04-25T02:27:23;9.10;99.90
20345;DHT22;10330;48.816;9.278;2023-04-25T02:29:52;9.10;99.90
20345;DHT22;10330;48.816;9.278;2023-04-25T02:32:20;9.20;99.90
20345;DHT22;10330;48.816;9.278;2023-04-25T02:34:47;9.10;99.90
20345;DHT22;10330;48.816;9.278;2023-04-25T02:37:14;9.00;99.90
20345;DHT22;10330;48.816;9.278;2023-04-25T02:39:40;9.00;99.90
20345;DHT22;10330;48.816;9.278;2023-04-25T02:42:06;9.00;99.90
20345;DHT22;10330;48.816;9.278;2023-04-25T02:44:32;9.10;99.90
20345;DHT22;10330;48.816;9.278;2023-04-25T02:46:58;9.00;99.90
20345;DHT22;10330;48.816;9.278;2023-04-25T02:49:24;9.00;99.90
20345;DHT22;10330;48.816;9.278;2023-04-25T02:51:52;8.90;99.90
20345;DHT22;10330;48.816;9.278;2023-04-25T02:54:18;8.90;99.90
20345;DHT22;10330;48.816;9.278;2023-04-25T02:56:47;8.90;99.90
20345;DHT22;10330;48.816;9.278;2023-04-25T02:59:19;8.90;99.90
20345;DHT22;10330;48.816;9.278;2023-04-25T03:01:45;8.90;99.90
20345;DHT22;10330;48.816;9.278;2023-04-25T03:04:11;8.90;99.90
20345;DHT22;10330;48.816;9.278;2023-04-25T03:06:37;9.00;99.90
20345;DHT22;10330;48.816;9.278;2023-04-25T03:09:03;9.00;99.90
20345;DHT22;10330;48.816;9.278;2023-04-25T03:11:30;8.90;99.90
20345;DHT22;10330;48.816;9.278;2023-04-25T03:13:56;8.90;99.90
20345;DHT22;10330;48.816;9.278;2023-04-25T03:16:23;8.90;99.90
20345;DHT22;10330;48.816;9.278;2023-04-25T03:18:49;8.90;99.90
20345;DHT22;10330;48.816;9.278;2023-04-25T03:21:17;8.90;99.90
20345;DHT22;10330;48.816;9.278;2023-04-25T03:23:43;8.90;99.90
20345;DHT22;10330;48.816;9.278;2023-04-25T03:26:09;8.90;99.90
20345;DHT22;10330;48.816;9.278;2023-04-25T03:28:36;8.90;99.90
20345;DHT22;10330;48.816;9.278;2023-04-25T03:31:02;8.80;99.90
20345;DHT22;10330;48.816;9.278;2023-04-25T03:33:29;8.80;99.90
20345;DHT22;10330;48.816;9.278;2023-04-25T03:35:56;8.90;99.90
20345;DHT22;10330;48.816;9.278;2023-04-25T03:38:22;8.80;99.90
20345;DHT22;10330;48.816;9.278;2023-04-25T03:40:50;8.80;99.90
20345;DHT22;10330;48.816;9.278;2023-04-25T03:43:16;8.80;99.90
20345;DHT22;10330;48.816;9.278;2023-04-25T03:45:49;8.70;99.90
20345;DHT22;10330;48.816;9.278;2023-04-25T03:48:19;8.70;99.90
20345;DHT22;10330;48.816;9.278;2023-04-25T03:50:47;8.60;99.90
20345;DHT22;10330;48.816;9.278;2023-04-25T03:53:14;8.70;99.90
20345;DHT22;10330;48.816;9.278;2023-04-25T03:56:12;8.60;99.90
20345;DHT22;10330;48.816;9.278;2023-04-25T03:58:39;8.70;99.90
20345;DHT22;10330;48.816;9.278;2023-04-25T04:01:06;8.70;99.90
20345;DHT22;10330;48.816;9.278;2023-04-25T04:03:35;8.70;99.90
20345;DHT22;10330;48.816;9.278;2023-04-25T04:06:04;8.70;99.90
20345;DHT22;10330;48.816;9.278;2023-04-25T04:08:33;8.70;99.90
20345;DHT22;10330;48.816;9.278;2023-04-25T04:10:59;8.60;99.90
20345;DHT22;10330;48.816;9.278;2023-04-25T04:13:27;8.70;99.90
20345;DHT22;10330;48.816;9.278;2023-04-25T04:15:54;8.60;99.90
20345;DHT22;10330;48.816;9.278;2023-04-25T04:18:20;8.60;99.90
20345;DHT22;10330;48.816;9.278;2023-04-25T04:20:46;8.70;99.90
20345;DHT22;10330;48.816;9.278;2023-04-25T04:23:12;8.70;99.90
20345;DHT22;10330;48.816;9.278;2023-04-25T04:25:39;8.70;99.90
20345;DHT22;10330;48.816;9.278;2023-04-25T04:28:26;8.80;99.90
20345;DHT22;10330;48.816;9.278;2023-04-25T04:31:12;8.70;99.90
20345;DHT22;10330;48.816;9.278;2023-04-25T04:33:41;8.70;99.90
20345;DHT22;10330;48.816;9.278;2023-04-25T04:36:08;8.70;99.90
20345;DHT22;10330;48.816;9.278;2023-04-25T04:38:35;8.70;99.90
20345;DHT22;10330;48.816;9.278;2023-04-25T04:43:39;8.70;99.90
20345;DHT22;10330;48.816;9.278;2023-04-25T04:46:44;8.70;99.90
20345;DHT22;10330;48.816;9.278;2023-04-25T04:49:33;8.70;99.90
20345;DHT22;10330;48.816;9.278;2023-04-25T04:52:08;8.70;99.90
20345;DHT22;10330;48.816;9.278;2023-04-25T04:54:51;8.70;99.90
20345;DHT22;10330;48.816;9.278;2023-04-25T04:57:35;8.70;99.90
20345;DHT22;10330;48.816;9.278;2023-04-25T05:00:26;8.70;99.90
20345;DHT22;10330;48.816;9.278;2023-04-25T05:03:11;8.70;99.90
20345;DHT22;10330;48.816;9.278;2023-04-25T05:05:55;8.70;99.90
20345;DHT22;10330;48.816;9.278;2023-04-25T05:08:57;8.70;99.90
20345;DHT22;10330;48.816;9.278;2023-04-25T05:11:54;8.70;99.90
20345;DHT22;10330;48.816;9.278;2023-04-25T05:14:38;8.70;99.90
20345;DHT22;10330;48.816;9.278;2023-04-25T05:17:23;8.80;99.90
20345;DHT22;10330;48.816;9.278;2023-04-25T05:20:21;8.70;99.90
20345;DHT22;10330;48.816;9.278;2023-04-25T05:23:10;8.80;99.90
20345;DHT22;10330;48.816;9.278;2023-04-25T05:25:53;8.80;99.90
20345;DHT22;10330;48.816;9.278;2023-04-25T05:28:36;8.80;99.90
20345;DHT22;10330;48.816;9.278;2023-04-25T05:31:15;8.90;99.90
20345;DHT22;10330;48.816;9.278;2023-04-25T05:33:52;8.90;99.90
20345;DHT22;10330;48.816;9.278;2023-04-25T05:36:19;8.90;99.90
20345;DHT22;10330;48.816;9.278;2023-04-25T05:38:46;8.80;99.90
20345;DHT22;10330;48.816;9.278;2023-04-25T05:41:41;8.80;99.90
20345;DHT22;10330;48.816;9.278;2023-04-25T05:44:26;8.90;99.90
20345;DHT22;10330;48.816;9.278;2023-04-25T05:47:14;8.80;99.90
20345;DHT22;10330;48.816;9.278;2023-04-25T05:50:00;8.80;99.90
20345;DHT22;10330;48.816;9.278;2023-04-25T05:52:43;8.70;99.90
20345;DHT22;10330;48.816;9.278;2023-04-25T05:55:23;8.70;99.90
20345;DHT22;10330;48.816;9.278;2023-04-25T05:57:50;8.60;99.90
20345;DHT22;10330;48.816;9.278;2023-04-25T06:00:17;8.50;99.90
20345;DHT22;10330;48.816;9.278;2023-04-25T06:02:48;8.50;99.90
20345;DHT22;10330;48.816;9.278;2023-04-25T06:05:15;8.50;99.90
20345;DHT22;10330;48.816;9.278;2023-04-25T06:07:41;8.40;99.90
20345;DHT22;10330;48.816;9.278;2023-04-25T06:10:08;8.50;99.90
20345;DHT22;10330;48.816;9.278;2023-04-25T06:12:34;8.50;99.90
20345;DHT22;10330;48.816;9.278;2023-04-25T06:15:01;8.60;99.90
20345;DHT22;10330;48.816;9.278;2023-04-25T06:17:27;8.60;99.90
20345;DHT22;10330;48.816;9.278;2023-04-25T06:19:53;8.60;99.90
20345;DHT22;10330;48.816;9.278;2023-04-25T06:22:20;8.60;99.90
20345;DHT22;10330;48.816;9.278;2023-04-25T06:24:46;8.60;99.90
20345;DHT22;10330;48.816;9.278;2023-04-25T06:27:12;8.60;99.90
20345;DHT22;10330;48.816;9.278;2023-04-25T06:29:39;8.70;99.90
20345;DHT22;10330;48.816;9.278;2023-04-25T06:32:05;8.70;99.90
20345;DHT22;10330;48.816;9.278;2023-04-25T06:34:33;8.70;99.90
20345;DHT22;10330;48.816;9.278;2023-04-25T06:37:11;8.90;99.90
20345;DHT22;10330;48.816;9.278;2023-04-25T06:39:41;8.90;99.90
20345;DHT22;10330;48.816;9.278;2023-04-25T06:42:07;9.10;99.90
20345;DHT22;10330;48.816;9.278;2023-04-25T06:44:45;9.20;99.90
20345;DHT22;10330;48.816;9.278;2023-04-25T06:47:12;9.10;99.90
20345;DHT22;10330;48.816;9.278;2023-04-25T06:49:40;9.10;99.90
20345;DHT22;10330;48.816;9.278;2023-04-25T06:52:08;9.30;99.90
20345;DHT22;10330;48.816;9.278;2023-04-25T06:54:36;9.30;99.90
20345;DHT22;10330;48.816;9.278;2023-04-25T06:57:15;9.20;99.90
20345;DHT22;10330;48.816;9.278;2023-04-25T06:59:41;9.30;99.90
20345;DHT22;10330;48.816;9.278;2023-04-25T07:02:08;9.50;99.90
20345;DHT22;10330;48.816;9.278;2023-04-25T07:04:34;9.50;99.90
20345;DHT22;10330;48.816;9.278;2023-04-25T07:07:01;9.50;99.90
20345;DHT22;10330;48.816;9.278;2023-04-25T07:09:36;9.50;99.90
20345;DHT22;10330;48.816;9.278;2023-04-25T07:12:04;9.50;99.90
20345;DHT22;10330;48.816;9.278;2023-04-25T07:14:37;9.40;99.90
20345;DHT22;10330;48.816;9.278;2023-04-25T07:17:03;9.30;99.90
20345;DHT22;10330;48.816;9.278;2023-04-25T07:19:33;9.10;99.90
20345;DHT22;10330;48.816;9.278;2023-04-25T07:22:01;9.10;99.90
20345;DHT22;10330;48.816;9.278;2023-04-25T07:24:30;9.00;99.90
20345;DHT22;10330;48.816;9.278;2023-04-25T07:26:57;9.20;99.90
20345;DHT22;10330;48.816;9.278;2023-04-25T07:29:24;9.10;99.90
20345;DHT22;10330;48.816;9.278;2023-04-25T07:31:50;9.10;99.90
20345;DHT22;10330;48.816;9.278;2023-04-25T07:34:17;9.00;99.90
20345;DHT22;10330;48.816;9.278;2023-04-25T07:36:48;9.00;99.90
20345;DHT22;10330;48.816;9.278;2023-04-25T07:40:10;9.10;99.90
20345;DHT22;10330;48.816;9.278;2023-04-25T07:42:48;9.20;99.90
20345;DHT22;10330;48.816;9.278;2023-04-25T07:45:21;9.20;99.90
20345;DHT22;10330;48.816;9.278;2023-04-25T07:47:48;9.20;99.90
20345;DHT22;10330;48.816;9.278;2023-04-25T07:50:14;9.20;99.90
20345;DHT22;10330;48.816;9.278;2023-04-25T07:52:40;9.30;99.90
20345;DHT22;10330;48.816;9.278;2023-04-25T07:55:19;9.30;99.90
20345;DHT22;10330;48.816;9.278;2023-04-25T07:58:00;9.20;99.90
20345;DHT22;10330;48.816;9.278;2023-04-25T08:00:29;9.10;99.90
20345;DHT22;10330;48.816;9.278;2023-04-25T08:03:12;9.20;99.90
20345;DHT22;10330;48.816;9.278;2023-04-25T08:05:38;9.20;99.90
20345;DHT22;10330;48.816;9.278;2023-04-25T08:08:06;9.20;99.90
20345;DHT22;10330;48.816;9.278;2023-04-25T08:10:34;9.20;99.90
20345;DHT22;10330;48.816;9.278;2023-04-25T08:13:00;9.10;99.90
20345;DHT22;10330;48.816;9.278;2023-04-25T08:15:26;9.10;99.90
20345;DHT22;10330;48.816;9.278;2023-04-25T08:17:52;9.00;99.90
20345;DHT22;10330;48.816;9.278;2023-04-25T08:20:19;8.90;99.90
20345;DHT22;10330;48.816;9.278;2023-04-25T08:22:46;8.90;99.90
20345;DHT22;10330;48.816;9.278;2023-04-25T08:25:25;9.00;99.90
20345;DHT22;10330;48.816;9.278;2023-04-25T08:27:51;8.90;99.90
20345;DHT22;10330;48.816;9.278;2023-04-25T08:30:20;8.90;99.90
20345;DHT22;10330;48.816;9.278;2023-04-25T08:32:47;8.80;99.90
20345;DHT22;10330;48.816;9.278;2023-04-25T08:35:32;8.80;99.90
20345;DHT22;10330;48.816;9.278;2023-04-25T08:38:12;8.90;99.90
20345;DHT22;10330;48.816;9.278;2023-04-25T08:41:00;8.90;99.90
20345;DHT22;10330;48.816;9.278;2023-04-25T08:43:29;8.80;99.90
20345;DHT22;10330;48.816;9.278;2023-04-25T08:46:00;8.90;99.90
20345;DHT22;10330;48.816;9.278;2023-04-25T08:48:37;8.80;99.90
20345;DHT22;10330;48.816;9.278;2023-04-25T08:51:07;8.90;99.90
20345;DHT22;10330;48.816;9.278;2023-04-25T08:53:49;9.00;99.90
20345;DHT22;10330;48.816;9.278;2023-04-25T08:56:17;9.00;99.90
20345;DHT22;10330;48.816;9.278;2023-04-25T08:58:50;9.00;99.90
20345;DHT22;10330;48.816;9.278;2023-04-25T09:01:17;9.20;99.90
20345;DHT22;10330;48.816;9.278;2023-04-25T09:03:49;9.10;99.90
20345;DHT22;10330;48.816;9.278;2023-04-25T09:06:16;9.10;99.90
20345;DHT22;10330;48.816;9.278;2023-04-25T09:08:43;9.00;99.90
20345;DHT22;10330;48.816;9.278;2023-04-25T09:11:09;8.70;99.90
20345;DHT22;10330;48.816;9.278;2023-04-25T09:13:36;8.60;99.90
20345;DHT22;10330;48.816;9.278;2023-04-25T09:16:19;8.60;99.90
20345;DHT22;10330;48.816;9.278;2023-04-25T09:19:26;8.70;99.90
20345;DHT22;10330;48.816;9.278;2023-04-25T09:21:55;8.70;99.90
20345;DHT22;10330;48.816;9.278;2023-04-25T09:27:54;8.80;99.90
20345;DHT22;10330;48.816;9.278;2023-04-25T09:30:34;8.80;99.90
20345;DHT22;10330;48.816;9.278;2023-04-25T09:33:14;8.80;99.90
20345;DHT22;10330;48.816;9.278;2023-04-25T09:35:45;8.80;99.90
20345;DHT22;10330;48.816;9.278;2023-04-25T09:38:25;8.80;99.90
20345;DHT22;10330;48.816;9.278;2023-04-25T09:41:01;8.90;99.90
20345;DHT22;10330;48.816;9.278;2023-04-25T09:43:36;8.90;99.90
20345;DHT22;10330;48.816;9.278;2023-04-25T09:46:07;9.00;99.90
20345;DHT22;10330;48.816;9.278;2023-04-25T09:48:38;8.80;99.90
20345;DHT22;10330;48.816;9.278;2023-04-25T09:53:34;8.50;99.90
20345;DHT22;10330;48.816;9.278;2023-04-25T09:56:20;8.50;99.90
20345;DHT22;10330;48.816;9.278;2023-04-25T09:58:49;8.50;99.90
20345;DHT22;10330;48.816;9.278;2023-04-25T10:01:16;8.30;99.90
20345;DHT22;10330;48.816;9.278;2023-04-25T10:03:57;8.30;99.90
20345;DHT22;10330;48.816;9.278;2023-04-25T10:06:41;8.20;99.90
20345;DHT22;10330;48.816;9.278;2023-04-25T10:09:09;8.20;99.90
20345;DHT22;10330;48.816;9.278;2023-04-25T10:11:38;8.10;99.90
20345;DHT22;10330;48.816;9.278;2023-04-25T10:14:05;8.10;99.90
20345;DHT22;10330;48.816;9.278;2023-04-25T10:16:32;8.00;99.90
20345;DHT22;10330;48.816;9.278;2023-04-25T10:19:01;7.90;99.90
20345;DHT22;10330;48.816;9.278;2023-04-25T10:21:31;7.80;99.90
20345;DHT22;10330;48.816;9.278;2023-04-25T10:24:00;7.70;99.90
20345;DHT22;10330;48.816;9.278;2023-04-25T10:26:29;7.80;99.90
20345;DHT22;10330;48.816;9.278;2023-04-25T10:28:58;7.80;99.90
20345;DHT22;10330;48.816;9.278;2023-04-25T10:31:24;7.70;99.90
20345;DHT22;10330;48.816;9.278;2023-04-25T10:33:51;7.60;99.90
20345;DHT22;10330;48.816;9.278;2023-04-25T10:36:22;7.60;99.90
20345;DHT22;10330;48.816;9.278;2023-04-25T10:38:56;7.60;99.90
20345;DHT22;10330;48.816;9.278;2023-04-25T10:45:15;7.40;99.90
20345;DHT22;10330;48.816;9.278;2023-04-25T10:47:54;7.30;99.90
20345;DHT22;10330;48.816;9.278;2023-04-25T10:50:20;7.20;99.90
20345;DHT22;10330;48.816;9.278;2023-04-25T10:52:47;7.20;99.90
20345;DHT22;10330;48.816;9.278;2023-04-25T10:55:16;7.10;99.90
20345;DHT22;10330;48.816;9.278;2023-04-25T10:57:45;7.20;99.90
20345;DHT22;10330;48.816;9.278;2023-04-25T11:00:51;7.10;99.90
20345;DHT22;10330;48.816;9.278;2023-04-25T11:03:21;7.10;99.90
20345;DHT22;10330;48.816;9.278;2023-04-25T11:05:48;7.10;99.90
20345;DHT22;10330;48.816;9.278;2023-04-25T11:08:24;7.10;99.90
20345;DHT22;10330;48.816;9.278;2023-04-25T11:10:56;7.10;99.90
20345;DHT22;10330;48.816;9.278;2023-04-25T11:13:29;7.00;99.90
20345;DHT22;10330;48.816;9.278;2023-04-25T11:16:14;7.30;99.90
20345;DHT22;10330;48.816;9.278;2023-04-25T11:18:43;7.20;99.90
20345;DHT22;10330;48.816;9.278;2023-04-25T11:21:11;7.30;99.90
20345;DHT22;10330;48.816;9.278;2023-04-25T11:23:37;7.40;99.90
20345;DHT22;10330;48.816;9.278;2023-04-25T11:26:04;7.60;99.90
20345;DHT22;10330;48.816;9.278;2023-04-25T11:28:30;7.70;99.90
20345;DHT22;10330;48.816;9.278;2023-04-25T11:30:56;7.90;99.90
20345;DHT22;10330;48.816;9.278;2023-04-25T11:33:24;8.10;99.90
20345;DHT22;10330;48.816;9.278;2023-04-25T11:35:53;8.20;99.90
20345;DHT22;10330;48.816;9.278;2023-04-25T11:38:22;8.30;99.90
20345;DHT22;10330;48.816;9.278;2023-04-25T11:40:52;8.30;99.90
20345;DHT22;10330;48.816;9.278;2023-04-25T11:43:21;8.40;99.90
20345;DHT22;10330;48.816;9.278;2023-04-25T11:45:49;8.30;99.90
20345;DHT22;10330;48.816;9.278;2023-04-25T11:48:19;8.30;99.90
20345;DHT22;10330;48.816;9.278;2023-04-25T11:50:46;8.30;99.90
20345;DHT22;10330;48.816;9.278;2023-04-25T11:53:12;8.40;99.90
20345;DHT22;10330;48.816;9.278;2023-04-25T11:55:39;8.50;99.90
20345;DHT22;10330;48.816;9.278;2023-04-25T11:58:05;8.50;99.90
20345;DHT22;10330;48.816;9.278;2023-04-25T12:00:32;8.50;99.90
20345;DHT22;10330;48.816;9.278;2023-04-25T12:03:01;8.50;99.90
20345;DHT22;10330;48.816;9.278;2023-04-25T12:09:30;8.50;99.90
20345;DHT22;10330;48.816;9.278;2023-04-25T12:18:35;8.70;99.90
20345;DHT22;10330;48.816;9.278;2023-04-25T12:21:04;8.60;99.90
20345;DHT22;10330;48.816;9.278;2023-04-25T12:23:30;8.60;99.90
20345;DHT22;10330;48.816;9.278;2023-04-25T12:25:57;8.70;99.90
20345;DHT22;10330;48.816;9.278;2023-04-25T12:28:35;8.60;99.90
20345;DHT22;10330;48.816;9.278;2023-04-25T12:31:03;8.70;99.90
20345;DHT22;10330;48.816;9.278;2023-04-25T12:33:32;8.60;99.90
20345;DHT22;10330;48.816;9.278;2023-04-25T12:35:59;8.70;99.90
20345;DHT22;10330;48.816;9.278;2023-04-25T12:38:30;8.50;99.90
20345;DHT22;10330;48.816;9.278;2023-04-25T12:40:59;8.60;99.90
20345;DHT22;10330;48.816;9.278;2023-04-25T12:43:25;8.60;99.90
20345;DHT22;10330;48.816;9.278;2023-04-25T12:45:53;8.60;99.90
20345;DHT22;10330;48.816;9.278;2023-04-25T12:48:20;8.50;99.90
20345;DHT22;10330;48.816;9.278;2023-04-25T12:50:47;8.60;99.90
20345;DHT22;10330;48.816;9.278;2023-04-25T12:53:21;8.50;99.90
20345;DHT22;10330;48.816;9.278;2023-04-25T12:55:48;8.80;99.90
20345;DHT22;10330;48.816;9.278;2023-04-25T12:58:22;9.00;99.90
20345;DHT22;10330;48.816;9.278;2023-04-25T13:00:49;9.50;99.90
20345;DHT22;10330;48.816;9.278;2023-04-25T13:03:15;9.70;99.90
20345;DHT22;10330;48.816;9.278;2023-04-25T13:05:42;9.90;99.90
20345;DHT22;10330;48.816;9.278;2023-04-25T13:08:08;10.20;99.90
20345;DHT22;10330;48.816;9.278;2023-04-25T13:10:34;10.30;99.90
20345;DHT22;10330;48.816;9.278;2023-04-25T13:13:01;10.40;99.90
20345;DHT22;10330;48.816;9.278;2023-04-25T13:15:28;10.30;99.90
20345;DHT22;10330;48.816;9.278;2023-04-25T13:17:54;10.60;99.90
20345;DHT22;10330;48.816;9.278;2023-04-25T13:20:21;10.70;99.90
20345;DHT22;10330;48.816;9.278;2023-04-25T13:22:48;10.90;99.90
20345;DHT22;10330;48.816;9.278;2023-04-25T13:25:14;11.40;99.90
20345;DHT22;10330;48.816;9.278;2023-04-25T13:27:41;11.90;99.90
20345;DHT22;10330;48.816;9.278;2023-04-25T13:30:07;12.50;99.90
20345;DHT22;10330;48.816;9.278;2023-04-25T13:32:37;12.30;99.90
20345;DHT22;10330;48.816;9.278;2023-04-25T13:35:09;11.80;99.90
20345;DHT22;10330;48.816;9.278;2023-04-25T13:37:36;11.60;99.90
20345;DHT22;10330;48.816;9.278;2023-04-25T13:40:04;11.50;99.90
20345;DHT22;10330;48.816;9.278;2023-04-25T13:42:34;11.20;99.90
20345;DHT22;10330;48.816;9.278;2023-04-25T13:45:00;11.00;99.90
20345;DHT22;10330;48.816;9.278;2023-04-25T13:47:27;10.70;99.90
20345;DHT22;10330;48.816;9.278;2023-04-25T13:49:53;10.60;99.90
20345;DHT22;10330;48.816;9.278;2023-04-25T13:52:20;10.60;99.90
20345;DHT22;10330;48.816;9.278;2023-04-25T13:54:46;10.70;99.90
20345;DHT22;10330;48.816;9.278;2023-04-25T13:57:13;10.60;99.90
20345;DHT22;10330;48.816;9.278;2023-04-25T13:59:39;10.60;99.90
20345;DHT22;10330;48.816;9.278;2023-04-25T14:02:07;10.80;99.90
20345;DHT22;10330;48.816;9.278;2023-04-25T14:04:36;11.40;99.90
20345;DHT22;10330;48.816;9.278;2023-04-25T14:07:03;11.20;99.90
20345;DHT22;10330;48.816;9.278;2023-04-25T14:09:30;11.30;99.90
20345;DHT22;10330;48.816;9.278;2023-04-25T14:11:56;12.10;99.90
20345;DHT22;10330;48.816;9.278;2023-04-25T14:14:23;12.90;99.90
20345;DHT22;10330;48.816;9.278;2023-04-25T14:16:50;13.30;99.90
20345;DHT22;10330;48.816;9.278;2023-04-25T14:21:44;13.50;99.90
20345;DHT22;10330;48.816;9.278;2023-04-25T14:24:10;13.20;99.90
20345;DHT22;10330;48.816;9.278;2023-04-25T14:26:37;12.90;99.90
20345;DHT22;10330;48.816;9.278;2023-04-25T14:29:04;12.80;99.90
20345;DHT22;10330;48.816;9.278;2023-04-25T14:31:31;12.90;99.90
20345;DHT22;10330;48.816;9.278;2023-04-25T14:36:25;13.50;99.90
20345;DHT22;10330;48.816;9.278;2023-04-25T14:46:13;14.80;99.90
20345;DHT22;10330;48.816;9.278;2023-04-25T15:10:40;12.20;99.90
20345;DHT22;10330;48.816;9.278;2023-04-25T15:13:07;14.30;99.90
20345;DHT22;10330;48.816;9.278;2023-04-25T15:15:38;15.40;99.90
20345;DHT22;10330;48.816;9.278;2023-04-25T15:18:13;15.80;99.90
20345;DHT22;10330;48.816;9.278;2023-04-25T15:20:43;16.30;99.90
20345;DHT22;10330;48.816;9.278;2023-04-25T15:28:03;15.50;99.90
20345;DHT22;10330;48.816;9.278;2023-04-25T15:35:23;13.70;99.90
20345;DHT22;10330;48.816;9.278;2023-04-25T15:42:50;13.70;99.90
20345;DHT22;10330;48.816;9.278;2023-04-25T15:45:21;12.30;99.90
20345;DHT22;10330;48.816;9.278;2023-04-25T15:47:49;12.20;99.90
20345;DHT22;10330;48.816;9.278;2023-04-25T15:50:16;12.20;99.90
20345;DHT22;10330;48.816;9.278;2023-04-25T15:52:42;12.30;99.90
20345;DHT22;10330;48.816;9.278;2023-04-25T16:00:04;12.30;99.90
20345;DHT22;10330;48.816;9.278;2023-04-25T16:02:41;12.30;99.90
20345;DHT22;10330;48.816;9.278;2023-04-25T16:07:36;12.10;99.90
20345;DHT22;10330;48.816;9.278;2023-04-25T16:24:51;12.00;99.90
20345;DHT22;10330;48.816;9.278;2023-04-25T16:29:44;12.10;99.90
20345;DHT22;10330;48.816;9.278;2023-04-25T16:32:13;11.80;99.90
20345;DHT22;10330;48.816;9.278;2023-04-25T16:34:40;11.90;99.90
20345;DHT22;10330;48.816;9.278;2023-04-25T16:37:06;11.80;99.90
20345;DHT22;10330;48.816;9.278;2023-04-25T16:39:32;11.90;99.90
20345;DHT22;10330;48.816;9.278;2023-04-25T16:41:58;11.60;99.90
20345;DHT22;10330;48.816;9.278;2023-04-25T16:44:25;11.20;99.90
20345;DHT22;10330;48.816;9.278;2023-04-25T16:46:51;11.10;99.90
20345;DHT22;10330;48.816;9.278;2023-04-25T16:49:17;11.00;99.90
20345;DHT22;10330;48.816;9.278;2023-04-25T16:51:44;11.10;99.90
20345;DHT22;10330;48.816;9.278;2023-04-25T16:54:11;11.00;99.90
20345;DHT22;10330;48.816;9.278;2023-04-25T16:56:37;11.10;99.90
20345;DHT22;10330;48.816;9.278;2023-04-25T16:59:04;10.90;99.90
20345;DHT22;10330;48.816;9.278;2023-04-25T17:01:30;10.70;99.90
20345;DHT22;10330;48.816;9.278;2023-04-25T17:03:57;10.70;99.90
20345;DHT22;10330;48.816;9.278;2023-04-25T17:06:23;10.70;99.90
20345;DHT22;10330;48.816;9.278;2023-04-25T17:08:50;10.60;99.90
20345;DHT22;10330;48.816;9.278;2023-04-25T17:11:17;10.40;99.90
20345;DHT22;10330;48.816;9.278;2023-04-25T17:13:45;10.40;99.90
20345;DHT22;10330;48.816;9.278;2023-04-25T17:16:11;10.30;99.90
20345;DHT22;10330;48.816;9.278;2023-04-25T17:18:46;10.20;99.90
20345;DHT22;10330;48.816;9.278;2023-04-25T17:21:13;10.20;99.90
20345;DHT22;10330;48.816;9.278;2023-04-25T17:23:39;10.10;99.90
20345;DHT22;10330;48.816;9.278;2023-04-25T17:26:16;10.00;99.90
20345;DHT22;10330;48.816;9.278;2023-04-25T17:28:42;10.00;99.90
20345;DHT22;10330;48.816;9.278;2023-04-25T17:31:15;10.00;99.90
20345;DHT22;10330;48.816;9.278;2023-04-25T17:33:41;9.90;99.90
20345;DHT22;10330;48.816;9.278;2023-04-25T17:36:07;9.90;99.90
20345;DHT22;10330;48.816;9.278;2023-04-25T17:38:34;9.80;99.90
20345;DHT22;10330;48.816;9.278;2023-04-25T17:41:04;9.80;99.90